createdAt,value
2023-06-05T00:00:12.011Z,56.10
2023-06-05T00:03:00.322Z,56.20
2023-06-05T00:05:46.686Z,57.10
2023-06-05T00:08:31.974Z,58.30
2023-06-05T00:11:17.707Z,57.20
2023-06-05T00:14:06.866Z,58.10
2023-06-05T00:16:52.454Z,56.50
2023-06-05T00:19:38.021Z,57.30
2023-06-05T00:22:23.912Z,57.00
2023-06-05T00:25:09.962Z,57.30
2023-06-05T00:27:55.756Z,58.30
2023-06-05T00:30:41.234Z,58.00
2023-06-05T00:33:27.457Z,58.30
2023-06-05T00:36:13.509Z,58.40
2023-06-05T00:38:58.809Z,58.60
2023-06-05T00:41:44.306Z,58.40
2023-06-05T00:44:29.786Z,58.10
2023-06-05T00:47:15.863Z,59.40
2023-06-05T00:50:02.683Z,58.60
2023-06-05T00:52:49.224Z,58.70
2023-06-05T00:55:35.434Z,58.60
2023-06-05T00:58:21.690Z,58.80
2023-06-05T01:01:11.230Z,58.70
2023-06-05T01:03:57.488Z,58.20
2023-06-05T01:06:46.517Z,59.50
2023-06-05T01:09:32.466Z,60.00
2023-06-05T01:13:07.427Z,60.10
2023-06-05T01:15:54.494Z,79.40
2023-06-05T01:18:40.393Z,60.20
2023-06-05T01:21:25.934Z,61.00
2023-06-05T01:24:11.460Z,59.40
2023-06-05T01:26:56.906Z,60.20
2023-06-05T01:30:25.229Z,60.20
2023-06-05T01:33:44.583Z,70.60
2023-06-05T01:36:31.528Z,59.60
2023-06-05T01:39:18.162Z,61.00
2023-06-05T01:42:04.386Z,60.10
2023-06-05T01:44:50.396Z,59.90
2023-06-05T01:47:38.776Z,61.00
2023-06-05T01:50:24.860Z,60.50
2023-06-05T01:53:11.066Z,61.80
2023-06-05T01:55:57.703Z,61.30
2023-06-05T01:58:43.305Z,60.80
2023-06-05T02:01:28.984Z,61.30
2023-06-05T02:04:14.865Z,62.50
2023-06-05T02:07:00.796Z,61.60
2023-06-05T02:09:46.397Z,62.10
2023-06-05T02:12:33.075Z,61.20
2023-06-05T02:15:18.992Z,62.70
2023-06-05T02:18:05.229Z,62.50
2023-06-05T02:20:55.049Z,61.30
2023-06-05T02:23:40.761Z,61.10
2023-06-05T02:26:27.986Z,62.00
2023-06-05T02:29:13.820Z,63.20
2023-06-05T02:31:59.323Z,62.70
2023-06-05T02:34:45.080Z,61.90
2023-06-05T02:37:30.613Z,61.50
2023-06-05T02:40:16.088Z,61.20
2023-06-05T02:43:01.796Z,61.80
2023-06-05T02:45:47.381Z,61.30
2023-06-05T02:48:33.373Z,61.00
2023-06-05T02:51:22.212Z,61.40
2023-06-05T02:54:09.478Z,60.80
2023-06-05T02:56:56.559Z,60.30
2023-06-05T02:59:42.555Z,60.40
2023-06-05T03:02:28.216Z,60.50
2023-06-05T03:05:13.650Z,60.40
2023-06-05T03:07:59.441Z,60.20
2023-06-05T03:10:44.814Z,59.80
2023-06-05T03:13:31.396Z,59.80
2023-06-05T03:16:16.997Z,60.10
2023-06-05T03:19:02.516Z,60.10
2023-06-05T03:21:48.148Z,60.20
2023-06-05T03:24:33.705Z,59.30
2023-06-05T03:27:19.653Z,59.00
2023-06-05T03:30:06.611Z,58.90
2023-06-05T03:32:52.055Z,58.10
2023-06-05T03:35:39.852Z,57.90
2023-06-05T03:38:25.472Z,57.90
2023-06-05T03:41:12.566Z,57.50
2023-06-05T03:43:58.258Z,57.30
2023-06-05T03:46:43.648Z,57.60
2023-06-05T03:49:29.614Z,56.40
2023-06-05T03:52:15.668Z,56.50
2023-06-05T03:55:01.068Z,56.20
2023-06-05T03:57:48.852Z,55.80
2023-06-05T04:00:34.750Z,55.40
2023-06-05T04:03:20.497Z,54.80
2023-06-05T04:06:07.391Z,55.10
2023-06-05T04:09:09.089Z,53.60
2023-06-05T04:11:54.467Z,51.60
2023-06-05T04:14:39.978Z,51.50
2023-06-05T04:17:25.696Z,51.40
2023-06-05T04:20:12.544Z,51.90
2023-06-05T04:23:00.548Z,51.20
2023-06-05T04:25:46.288Z,50.20
2023-06-05T04:28:31.917Z,49.50
2023-06-05T04:31:17.192Z,48.80
2023-06-05T04:34:05.293Z,47.90
2023-06-05T04:36:50.801Z,47.90
2023-06-05T04:39:36.376Z,47.50
2023-06-05T04:42:26.681Z,47.20
2023-06-05T04:45:12.467Z,47.40
2023-06-05T04:47:58.153Z,47.60
2023-06-05T04:50:43.999Z,47.10
2023-06-05T04:53:30.025Z,45.60
2023-06-05T04:56:23.434Z,44.30
2023-06-05T04:59:12.215Z,44.40
2023-06-05T05:01:57.967Z,43.70
2023-06-05T05:04:43.925Z,43.60
2023-06-05T05:07:32.460Z,43.60
2023-06-05T05:10:17.966Z,43.80
2023-06-05T05:13:03.575Z,43.90
2023-06-05T05:15:49.191Z,45.70
2023-06-05T05:18:36.228Z,47.50
2023-06-05T05:21:22.190Z,48.20
2023-06-05T05:24:08.068Z,49.30
2023-06-05T05:26:55.124Z,49.50
2023-06-05T05:29:40.640Z,49.00
2023-06-05T05:32:26.105Z,48.50
2023-06-05T05:35:11.824Z,48.00
2023-06-05T05:37:58.419Z,48.20
2023-06-05T05:40:44.037Z,48.20
2023-06-05T05:43:29.818Z,48.20
2023-06-05T05:46:16.161Z,48.30
2023-06-05T05:49:05.795Z,48.00
2023-06-05T05:51:52.264Z,47.70
2023-06-05T05:54:37.833Z,47.60
2023-06-05T05:57:23.205Z,47.60
2023-06-05T06:00:10.945Z,47.30
2023-06-05T06:02:56.797Z,47.40
2023-06-05T06:05:42.262Z,47.20
2023-06-05T06:08:27.776Z,46.80
2023-06-05T06:11:13.517Z,46.70
2023-06-05T06:13:59.374Z,46.40
2023-06-05T06:16:44.954Z,46.50
2023-06-05T06:19:30.920Z,46.50
2023-06-05T06:22:16.692Z,46.10
2023-06-05T06:25:02.338Z,45.90
2023-06-05T06:27:48.987Z,46.00
2023-06-05T06:30:35.257Z,45.70
2023-06-05T06:33:20.991Z,45.50
2023-06-05T06:36:07.729Z,45.40
2023-06-05T06:38:55.537Z,45.20
2023-06-05T06:41:42.661Z,45.20
2023-06-05T06:44:28.138Z,45.00
2023-06-05T06:47:13.644Z,45.00
2023-06-05T06:49:59.193Z,45.70
2023-06-05T06:52:44.815Z,44.70
2023-06-05T06:55:30.339Z,44.40
2023-06-05T06:58:15.972Z,44.80
2023-06-05T07:01:01.591Z,44.90
2023-06-05T07:03:49.384Z,44.70
2023-06-05T07:06:35.093Z,44.60
2023-06-05T07:09:20.667Z,44.20
2023-06-05T07:12:06.915Z,44.30
2023-06-05T07:14:53.032Z,44.50
2023-06-05T07:17:41.940Z,44.40
2023-06-05T07:20:27.391Z,44.10
2023-06-05T07:23:14.211Z,44.50
2023-06-05T07:25:59.919Z,44.30
2023-06-05T07:28:45.629Z,44.30
2023-06-05T07:31:31.702Z,44.10
2023-06-05T07:34:19.960Z,44.10
2023-06-05T07:37:06.039Z,44.30
2023-06-05T07:39:51.663Z,44.60
2023-06-05T07:42:37.641Z,44.40
2023-06-05T07:45:23.578Z,44.20
2023-06-05T07:48:12.353Z,43.90
2023-06-05T07:51:00.488Z,43.80
2023-06-05T07:53:46.014Z,43.70
2023-06-05T07:56:34.347Z,43.70
2023-06-05T07:59:20.016Z,43.70
2023-06-05T08:02:05.436Z,43.40
2023-06-05T08:04:51.609Z,43.50
2023-06-05T08:07:37.637Z,43.70
2023-06-05T08:10:23.441Z,43.80
2023-06-05T08:13:17.988Z,44.10
2023-06-05T08:16:03.810Z,44.10
2023-06-05T08:18:49.749Z,44.40
2023-06-05T08:21:35.835Z,44.20
2023-06-05T08:24:21.858Z,43.90
2023-06-05T08:27:09.965Z,43.40
2023-06-05T08:29:55.620Z,43.30
2023-06-05T08:32:41.679Z,44.10
2023-06-05T08:35:29.563Z,44.40
2023-06-05T08:38:15.270Z,44.40
2023-06-05T08:41:07.237Z,44.30
2023-06-05T08:43:56.025Z,42.80
2023-06-05T08:46:42.256Z,44.90
2023-06-05T08:49:30.313Z,44.50
2023-06-05T08:52:22.414Z,44.30
2023-06-05T08:55:11.769Z,44.30
2023-06-05T08:57:59.008Z,44.30
2023-06-05T09:00:44.775Z,44.00
2023-06-05T09:03:30.642Z,44.10
2023-06-05T09:06:16.394Z,43.90
2023-06-05T09:09:02.282Z,44.00
2023-06-05T09:11:47.902Z,44.00
2023-06-05T09:14:34.791Z,44.10
2023-06-05T09:17:23.442Z,43.60
2023-06-05T09:20:30.845Z,43.30
2023-06-05T09:23:30.394Z,41.70
2023-06-05T09:26:16.140Z,37.80
2023-06-05T09:29:01.693Z,42.70
2023-06-05T09:31:47.170Z,42.70
2023-06-05T09:34:41.461Z,42.40
2023-06-05T09:37:41.286Z,42.40
2023-06-05T09:40:38.787Z,42.00
2023-06-05T09:43:24.544Z,42.00
2023-06-05T09:46:15.020Z,44.10
2023-06-05T09:49:00.570Z,44.30
2023-06-05T09:51:47.641Z,44.40
2023-06-05T09:54:33.218Z,44.50
2023-06-05T09:57:20.048Z,44.30
2023-06-05T10:00:07.545Z,44.30
2023-06-05T10:02:57.144Z,43.90
2023-06-05T10:05:45.967Z,44.30
2023-06-05T10:08:32.158Z,44.20
2023-06-05T10:11:21.201Z,44.10
2023-06-05T10:14:08.413Z,43.60
2023-06-05T10:16:55.740Z,43.50
2023-06-05T10:19:45.759Z,43.80
2023-06-05T10:22:32.189Z,43.00
2023-06-05T10:25:20.825Z,42.50
2023-06-05T10:29:13.565Z,42.60
2023-06-05T10:32:08.566Z,38.20
2023-06-05T10:35:25.506Z,42.90
2023-06-05T10:38:26.025Z,36.00
2023-06-05T10:41:13.024Z,43.90
2023-06-05T10:43:58.886Z,44.60
2023-06-05T10:46:44.415Z,44.30
2023-06-05T10:49:30.483Z,44.30
2023-06-05T10:52:39.069Z,43.70
2023-06-05T10:55:41.831Z,40.60
2023-06-05T10:58:27.676Z,44.60
2023-06-05T11:01:19.393Z,44.00
2023-06-05T11:04:04.967Z,44.60
2023-06-05T11:07:26.862Z,44.80
2023-06-05T11:10:16.235Z,35.80
2023-06-05T11:13:02.889Z,44.80
2023-06-05T11:15:48.385Z,43.30
2023-06-05T11:18:35.387Z,43.60
2023-06-05T11:21:20.833Z,44.60
2023-06-05T11:24:17.629Z,43.90
2023-06-05T11:27:07.896Z,40.80
2023-06-05T11:29:53.568Z,44.30
2023-06-05T11:32:39.607Z,32.10
2023-06-05T11:35:27.288Z,44.10
2023-06-05T11:38:22.171Z,44.10
2023-06-05T11:41:12.146Z,44.00
2023-06-05T11:43:58.096Z,45.50
2023-06-05T11:46:45.207Z,46.60
2023-06-05T11:49:31.159Z,47.20
2023-06-05T11:52:22.097Z,49.10
2023-06-05T11:55:21.269Z,46.40
2023-06-05T11:58:06.990Z,40.70
2023-06-05T12:01:05.336Z,48.00
2023-06-05T12:04:08.978Z,47.90
2023-06-05T12:06:54.752Z,43.30
2023-06-05T12:09:40.372Z,46.80
2023-06-05T12:12:25.815Z,47.30
2023-06-05T12:15:22.536Z,46.40
2023-06-05T12:18:08.537Z,35.40
2023-06-05T12:20:54.479Z,44.00
2023-06-05T12:23:40.066Z,45.40
2023-06-05T12:26:25.754Z,46.40
2023-06-05T12:29:13.583Z,44.20
2023-06-05T12:32:02.514Z,45.50
2023-06-05T12:34:57.971Z,46.70
2023-06-05T12:37:45.564Z,46.10
2023-06-05T12:40:36.997Z,46.00
2023-06-05T12:43:24.223Z,43.60
2023-06-05T12:46:10.141Z,41.90
2023-06-05T12:48:55.795Z,41.10
2023-06-05T12:51:41.246Z,40.60
2023-06-05T12:54:29.433Z,40.70
2023-06-05T12:57:15.207Z,43.40
2023-06-05T13:00:00.622Z,46.10
2023-06-05T13:02:47.134Z,47.80
2023-06-05T13:05:33.535Z,47.30
2023-06-05T13:08:19.370Z,47.50
2023-06-05T13:11:05.452Z,47.90
2023-06-05T13:13:51.250Z,48.00
2023-06-05T13:16:38.934Z,46.70
2023-06-05T13:19:25.209Z,47.30
2023-06-05T13:22:10.770Z,46.80
2023-06-05T13:24:56.357Z,46.70
2023-06-05T13:27:41.843Z,46.60
2023-06-05T13:30:27.521Z,46.10
2023-06-05T13:33:13.981Z,45.80
2023-06-05T13:36:00.387Z,45.60
2023-06-05T13:38:46.494Z,45.20
2023-06-05T13:41:32.159Z,44.80
2023-06-05T13:44:17.605Z,44.80
2023-06-05T13:47:03.033Z,44.60
2023-06-05T13:49:48.880Z,44.70
2023-06-05T13:52:34.472Z,45.20
2023-06-05T13:55:19.994Z,45.30
2023-06-05T13:58:05.509Z,45.60
2023-06-05T14:00:51.316Z,46.20
2023-06-05T14:03:38.313Z,45.20
2023-06-05T14:06:24.325Z,46.60
2023-06-05T14:09:10.049Z,46.20
2023-06-05T14:12:01.196Z,46.30
2023-06-05T14:14:47.050Z,46.00
2023-06-05T14:17:32.945Z,46.80
2023-06-05T14:20:20.702Z,46.60
2023-06-05T14:23:06.124Z,47.10
2023-06-05T14:25:52.343Z,46.50
2023-06-05T14:28:38.717Z,46.00
2023-06-05T14:31:24.441Z,46.30
2023-06-05T14:34:18.059Z,46.10
2023-06-05T14:37:06.989Z,44.40
2023-06-05T14:39:53.918Z,45.50
2023-06-05T14:42:40.316Z,36.30
2023-06-05T14:45:26.399Z,45.10
2023-06-05T14:48:12.413Z,45.00
2023-06-05T14:50:58.684Z,44.00
2023-06-05T14:53:44.302Z,44.30
2023-06-05T14:56:29.922Z,44.60
2023-06-05T15:02:08.173Z,44.60
2023-06-05T15:04:53.916Z,44.90
2023-06-05T15:07:42.194Z,44.10
2023-06-05T15:10:27.550Z,44.10
2023-06-05T15:13:12.978Z,43.80
2023-06-05T15:15:58.408Z,43.80
2023-06-05T15:18:43.870Z,44.10
2023-06-05T15:21:30.931Z,43.70
2023-06-05T15:24:16.393Z,43.70
2023-06-05T15:27:01.889Z,43.30
2023-06-05T15:29:47.476Z,43.30
2023-06-05T15:32:33.299Z,43.30
2023-06-05T15:35:31.705Z,43.50
2023-06-05T15:38:17.349Z,40.30
2023-06-05T15:41:03.458Z,42.60
2023-06-05T15:43:49.273Z,43.10
2023-06-05T15:46:35.195Z,43.10
2023-06-05T15:49:23.521Z,43.20
2023-06-05T15:52:11.494Z,43.20
2023-06-05T15:54:59.480Z,43.50
2023-06-05T15:57:47.096Z,43.30
2023-06-05T16:00:33.142Z,42.90
2023-06-05T16:03:18.991Z,42.90
2023-06-05T16:06:05.198Z,42.80
2023-06-05T16:08:50.951Z,42.90
2023-06-05T16:11:38.979Z,43.00
2023-06-05T16:14:24.844Z,43.10
2023-06-05T16:17:12.118Z,43.00
2023-06-05T16:19:58.609Z,43.20
2023-06-05T16:22:44.511Z,43.60
2023-06-05T16:25:30.414Z,43.40
2023-06-05T16:28:26.552Z,43.40
2023-06-05T16:31:15.167Z,43.10
2023-06-05T16:34:12.596Z,43.40
2023-06-05T16:36:58.528Z,42.20
2023-06-05T16:39:46.920Z,43.30
2023-06-05T16:42:35.162Z,44.10
2023-06-05T16:45:20.930Z,43.60
2023-06-05T16:48:06.868Z,43.50
2023-06-05T16:50:55.967Z,43.40
2023-06-05T16:53:41.470Z,43.50
2023-06-05T16:56:30.342Z,43.60
2023-06-05T16:59:16.348Z,43.70
2023-06-05T17:02:09.852Z,43.70
2023-06-05T17:04:56.488Z,43.90
2023-06-05T17:07:42.671Z,43.90
2023-06-05T17:10:31.578Z,44.10
2023-06-05T17:13:17.098Z,44.30
2023-06-05T17:16:05.487Z,44.30
2023-06-05T17:18:51.246Z,44.40
2023-06-05T17:21:37.469Z,44.50
2023-06-05T17:24:25.548Z,44.60
2023-06-05T17:27:11.587Z,44.60
2023-06-05T17:30:01.236Z,44.60
2023-06-05T17:32:52.274Z,44.70
2023-06-05T17:35:37.717Z,44.90
2023-06-05T17:38:26.303Z,45.00
2023-06-05T17:41:12.885Z,45.10
2023-06-05T17:43:59.214Z,45.00
2023-06-05T17:46:44.978Z,45.00
2023-06-05T17:49:30.559Z,45.00
2023-06-05T17:52:17.027Z,45.00
2023-06-05T17:55:02.980Z,45.70
2023-06-05T17:57:48.975Z,45.10
2023-06-05T18:00:35.718Z,45.10
2023-06-05T18:03:21.324Z,45.10
2023-06-05T18:06:07.428Z,44.90
2023-06-05T18:08:53.648Z,45.10
2023-06-05T18:11:44.310Z,45.20
2023-06-05T18:14:37.646Z,45.30
2023-06-05T18:17:25.018Z,46.10
2023-06-05T18:20:12.389Z,46.50
2023-06-05T18:22:58.124Z,46.90
2023-06-05T18:25:43.904Z,47.20
2023-06-05T18:28:29.655Z,47.40
2023-06-05T18:31:15.860Z,47.10
2023-06-05T18:34:01.791Z,47.70
2023-06-05T18:36:50.784Z,47.30
2023-06-05T18:39:36.664Z,47.40
2023-06-05T18:42:22.787Z,47.20
2023-06-05T18:45:16.253Z,47.50
2023-06-05T18:48:02.978Z,46.60
2023-06-05T18:50:48.603Z,47.10
2023-06-05T18:53:34.395Z,47.30
2023-06-05T18:56:20.180Z,47.00
2023-06-05T18:59:05.865Z,46.80
2023-06-05T19:01:57.223Z,47.00
2023-06-05T19:04:42.868Z,47.10
2023-06-05T19:07:44.471Z,47.40
2023-06-05T19:10:31.106Z,47.10
2023-06-05T19:13:16.968Z,47.10
2023-06-05T19:16:02.691Z,47.20
2023-06-05T19:18:48.411Z,47.40
2023-06-05T19:21:33.742Z,47.80
2023-06-05T19:24:19.389Z,47.60
2023-06-05T19:27:07.151Z,47.90
2023-06-05T19:29:54.948Z,47.70
2023-06-05T19:32:40.641Z,47.70
2023-06-05T19:35:26.589Z,47.70
2023-06-05T19:38:12.523Z,48.00
2023-06-05T19:41:01.084Z,48.20
2023-06-05T19:43:48.286Z,49.10
2023-06-05T19:46:41.080Z,48.90
2023-06-05T19:49:26.758Z,48.70
2023-06-05T19:52:14.776Z,49.80
2023-06-05T19:55:03.235Z,49.30
2023-06-05T19:57:49.002Z,49.50
2023-06-05T20:00:34.869Z,49.40
2023-06-05T20:03:21.594Z,49.50
2023-06-05T20:06:07.423Z,48.90
2023-06-05T20:08:53.299Z,49.40
2023-06-05T20:11:42.106Z,49.40
2023-06-05T20:14:28.210Z,49.40
2023-06-05T20:17:14.425Z,49.70
2023-06-05T20:20:00.244Z,49.60
2023-06-05T20:22:46.259Z,49.50
2023-06-05T20:25:31.893Z,50.10
2023-06-05T20:28:17.641Z,50.40
2023-06-05T20:31:03.178Z,50.00
2023-06-05T20:33:49.139Z,50.90
2023-06-05T20:36:34.897Z,51.30
2023-06-05T20:39:20.942Z,50.90
2023-06-05T20:42:08.236Z,50.40
2023-06-05T20:44:54.041Z,50.20
2023-06-05T20:47:40.556Z,51.00
2023-06-05T20:50:26.410Z,51.50
2023-06-05T20:53:12.411Z,52.30
2023-06-05T20:55:58.513Z,52.40
2023-06-05T20:58:46.527Z,52.10
2023-06-05T21:01:34.854Z,51.50
2023-06-05T21:04:20.505Z,51.90
2023-06-05T21:07:06.703Z,52.50
2023-06-05T21:09:52.644Z,52.00
2023-06-05T21:12:38.468Z,51.80
2023-06-05T21:15:24.321Z,52.00
2023-06-05T21:18:10.012Z,52.00
2023-06-05T21:20:55.891Z,51.70
2023-06-05T21:23:41.445Z,51.50
2023-06-05T21:26:26.891Z,51.80
2023-06-05T21:29:12.626Z,51.90
2023-06-05T21:32:01.930Z,52.30
2023-06-05T21:34:50.708Z,52.60
2023-06-05T21:37:36.261Z,53.20
2023-06-05T21:40:21.816Z,53.20
2023-06-05T21:43:10.920Z,52.70
2023-06-05T21:45:56.935Z,52.30
2023-06-05T21:48:43.001Z,52.40
2023-06-05T21:51:28.372Z,53.90
2023-06-05T21:54:14.017Z,54.00
2023-06-05T21:56:59.453Z,53.80
2023-06-05T21:59:45.104Z,53.20
2023-06-05T22:02:30.700Z,53.50
2023-06-05T22:05:16.658Z,54.50
2023-06-05T22:08:02.696Z,54.10
2023-06-05T22:10:48.138Z,53.70
2023-06-05T22:13:33.605Z,53.90
2023-06-05T22:16:19.103Z,54.90
2023-06-05T22:19:09.652Z,55.10
2023-06-05T22:21:55.549Z,54.20
2023-06-05T22:24:41.108Z,54.40
2023-06-05T22:27:26.579Z,54.90
2023-06-05T22:30:12.887Z,55.10
2023-06-05T22:32:58.585Z,55.00
2023-06-05T22:35:44.676Z,54.70
2023-06-05T22:38:30.556Z,55.90
2023-06-05T22:41:16.035Z,55.10
2023-06-05T22:44:02.122Z,56.40
2023-06-05T22:46:47.447Z,56.00
2023-06-05T22:49:32.998Z,55.70
2023-06-05T22:52:19.172Z,56.90
2023-06-05T22:55:05.931Z,56.90
2023-06-05T22:57:51.514Z,56.70
2023-06-05T23:00:38.073Z,56.40
2023-06-05T23:03:24.380Z,56.40
2023-06-05T23:06:10.873Z,56.80
2023-06-05T23:08:57.112Z,57.70
2023-06-05T23:11:42.606Z,57.70
2023-06-05T23:14:28.170Z,57.30
2023-06-05T23:17:13.837Z,57.40
2023-06-05T23:19:59.543Z,56.90
2023-06-05T23:22:45.683Z,56.90
2023-06-05T23:25:31.699Z,56.80
2023-06-05T23:28:17.482Z,57.10
2023-06-05T23:31:03.438Z,58.40
2023-06-05T23:33:48.919Z,58.40
2023-06-05T23:36:37.880Z,57.50
2023-06-05T23:39:23.689Z,57.80
2023-06-05T23:42:09.539Z,57.90
2023-06-05T23:44:55.077Z,59.10
2023-06-05T23:47:41.041Z,58.80
2023-06-05T23:50:28.072Z,57.70
2023-06-05T23:53:13.905Z,57.90
2023-06-05T23:55:59.311Z,57.90
2023-06-05T23:58:44.755Z,58.20
